createdAt,value
2019-06-07T00:00:57.893Z,6.00
2019-06-07T00:01:57.881Z,5.90
2019-06-07T00:02:57.861Z,6.30
2019-06-07T00:03:57.864Z,5.40
2019-06-07T00:04:57.871Z,6.10
2019-06-07T00:05:57.956Z,5.80
2019-06-07T00:06:57.888Z,6.10
2019-06-07T00:08:07.643Z,6.20
2019-06-07T00:08:58.878Z,6.20
2019-06-07T00:09:57.824Z,5.50
2019-06-07T00:10:57.780Z,6.50
2019-06-07T00:11:57.819Z,6.30
2019-06-07T00:12:57.760Z,7.10
2019-06-07T00:13:57.746Z,7.00
2019-06-07T00:14:57.770Z,6.80
2019-06-07T00:15:57.716Z,6.90
2019-06-07T00:16:57.718Z,7.50
2019-06-07T00:17:57.710Z,6.80
2019-06-07T00:18:57.694Z,6.80
2019-06-07T00:19:58.384Z,6.50
2019-06-07T00:20:57.709Z,6.10
2019-06-07T00:22:18.350Z,5.80
2019-06-07T00:22:58.646Z,5.80
2019-06-07T00:23:58.404Z,5.70
2019-06-07T00:24:57.626Z,6.10
2019-06-07T00:25:57.655Z,6.10
2019-06-07T00:26:59.107Z,6.40
2019-06-07T00:27:57.590Z,6.80
2019-06-07T00:28:57.602Z,7.00
2019-06-07T00:29:57.608Z,6.90
2019-06-07T00:30:57.603Z,6.70
2019-06-07T00:31:57.582Z,6.50
2019-06-07T00:32:57.546Z,7.10
2019-06-07T00:33:57.553Z,7.00
2019-06-07T00:34:57.530Z,6.70
2019-06-07T00:35:57.537Z,6.60
2019-06-07T00:36:58.400Z,7.00
2019-06-07T00:37:57.486Z,7.20
2019-06-07T00:38:57.475Z,6.60
2019-06-07T00:40:13.480Z,6.20
2019-06-07T00:40:58.476Z,7.00
2019-06-07T00:41:57.442Z,6.90
2019-06-07T00:42:57.428Z,7.10
2019-06-07T00:43:57.430Z,5.70
2019-06-07T00:44:57.456Z,6.40
2019-06-07T00:45:57.431Z,6.40
2019-06-07T00:46:57.412Z,6.60
2019-06-07T00:47:57.406Z,5.30
2019-06-07T00:48:57.358Z,6.30
2019-06-07T00:49:57.362Z,6.60
2019-06-07T00:50:57.387Z,5.80
2019-06-07T00:51:57.337Z,5.60
2019-06-07T00:53:17.569Z,5.40
2019-06-07T00:53:58.307Z,6.60
2019-06-07T00:54:57.296Z,6.40
2019-06-07T00:55:57.293Z,6.80
2019-06-07T00:56:57.311Z,6.50
2019-06-07T00:57:57.277Z,6.40
2019-06-07T00:59:10.838Z,6.60
2019-06-07T00:59:58.247Z,7.20
2019-06-07T01:00:57.243Z,6.60
2019-06-07T01:01:57.292Z,6.30
2019-06-07T01:02:57.228Z,6.60
2019-06-07T01:03:57.210Z,7.00
2019-06-07T01:04:57.203Z,6.60
2019-06-07T01:05:57.196Z,7.30
2019-06-07T01:06:57.233Z,6.90
2019-06-07T01:07:57.185Z,6.50
2019-06-07T01:08:57.164Z,6.80
2019-06-07T01:09:57.170Z,6.40
2019-06-07T01:10:57.131Z,6.50
2019-06-07T01:11:57.151Z,6.90
2019-06-07T01:12:57.118Z,7.10
2019-06-07T01:13:57.099Z,6.60
2019-06-07T01:14:57.107Z,6.60
2019-06-07T01:15:57.075Z,7.20
2019-06-07T01:17:13.510Z,6.90
2019-06-07T01:18:33.884Z,7.00
2019-06-07T01:18:58.044Z,7.40
2019-06-07T01:19:57.028Z,6.80
2019-06-07T01:20:57.017Z,7.20
2019-06-07T01:21:57.039Z,7.30
2019-06-07T01:22:56.998Z,7.10
2019-06-07T01:24:11.313Z,7.10
2019-06-07T01:24:57.982Z,7.10
2019-06-07T01:25:56.967Z,7.10
2019-06-07T01:26:56.978Z,7.10
2019-06-07T01:27:56.974Z,7.00
2019-06-07T01:28:56.943Z,6.90
2019-06-07T01:29:56.934Z,7.00
2019-06-07T01:30:56.952Z,6.90
2019-06-07T01:31:56.956Z,6.40
2019-06-07T01:32:56.941Z,6.60
2019-06-07T01:33:56.879Z,7.00
2019-06-07T01:34:56.879Z,6.60
2019-06-07T01:35:56.847Z,7.00
2019-06-07T01:36:56.860Z,6.90
2019-06-07T01:37:56.874Z,6.60
2019-06-07T01:38:56.830Z,7.20
2019-06-07T01:39:56.820Z,7.50
2019-06-07T01:40:56.815Z,7.40
2019-06-07T01:41:56.838Z,7.40
2019-06-07T01:42:56.802Z,7.30
2019-06-07T01:43:56.777Z,7.40
2019-06-07T01:44:56.770Z,6.50
2019-06-07T01:45:56.755Z,7.40
2019-06-07T01:46:56.730Z,7.00
2019-06-07T01:47:56.766Z,6.60
2019-06-07T01:48:56.710Z,6.90
2019-06-07T01:49:56.692Z,7.50
2019-06-07T01:50:56.703Z,7.20
2019-06-07T01:51:56.681Z,7.80
2019-06-07T01:52:56.699Z,7.50
2019-06-07T01:54:41.413Z,6.90
2019-06-07T01:54:58.975Z,8.10
2019-06-07T01:55:56.629Z,7.40
2019-06-07T01:56:56.658Z,7.50
2019-06-07T01:57:56.668Z,7.60
2019-06-07T01:58:56.606Z,7.50
2019-06-07T01:59:56.607Z,7.60
2019-06-07T02:00:56.604Z,7.10
2019-06-07T02:01:56.569Z,7.60
2019-06-07T02:02:56.603Z,7.80
2019-06-07T02:03:56.551Z,7.60
2019-06-07T02:04:56.561Z,6.90
2019-06-07T02:05:56.551Z,7.40
2019-06-07T02:06:56.533Z,7.60
2019-06-07T02:07:56.539Z,7.10
2019-06-07T02:08:56.509Z,8.00
2019-06-07T02:09:56.494Z,7.60
2019-06-07T02:10:56.477Z,7.40
2019-06-07T02:11:56.460Z,8.20
2019-06-07T02:12:56.488Z,8.20
2019-06-07T02:13:56.457Z,7.90
2019-06-07T02:14:56.448Z,7.80
2019-06-07T02:15:56.439Z,7.90
2019-06-07T02:16:56.424Z,8.20
2019-06-07T02:17:56.425Z,7.80
2019-06-07T02:19:01.939Z,8.20
2019-06-07T02:19:57.380Z,8.50
2019-06-07T02:20:56.375Z,8.10
2019-06-07T02:21:56.352Z,8.60
2019-06-07T02:22:56.373Z,8.40
2019-06-07T02:23:56.332Z,8.00
2019-06-07T02:25:34.467Z,8.90
2019-06-07T02:25:57.307Z,9.20
2019-06-07T02:26:56.311Z,8.30
2019-06-07T02:28:25.793Z,8.20
2019-06-07T02:28:57.286Z,8.60
2019-06-07T02:29:56.272Z,9.20
2019-06-07T02:30:59.774Z,8.20
2019-06-07T02:31:56.268Z,8.80
2019-06-07T02:32:56.273Z,8.00
2019-06-07T02:33:56.252Z,8.40
2019-06-07T02:34:56.268Z,8.10
2019-06-07T02:35:56.199Z,7.80
2019-06-07T02:36:56.194Z,8.00
2019-06-07T02:37:56.189Z,8.30
2019-06-07T02:38:56.191Z,9.10
2019-06-07T02:39:56.152Z,8.40
2019-06-07T02:40:56.147Z,8.20
2019-06-07T02:41:56.144Z,8.10
2019-06-07T02:42:56.127Z,8.00
2019-06-07T02:43:56.151Z,7.80
2019-06-07T02:44:56.110Z,8.30
2019-06-07T02:45:56.102Z,7.90
2019-06-07T02:46:56.097Z,8.20
2019-06-07T02:47:56.088Z,7.90
2019-06-07T02:48:56.096Z,8.00
2019-06-07T02:49:56.059Z,8.90
2019-06-07T02:50:56.042Z,8.40
2019-06-07T02:51:56.050Z,8.00
2019-06-07T02:52:56.016Z,8.70
2019-06-07T02:53:56.034Z,9.00
2019-06-07T02:54:56.008Z,8.40
2019-06-07T02:56:35.274Z,9.30
2019-06-07T02:56:58.952Z,9.10
2019-06-07T02:57:55.972Z,8.90
2019-06-07T02:58:55.983Z,9.00
2019-06-07T03:00:07.786Z,9.10
2019-06-07T03:01:08.591Z,9.20
2019-06-07T03:01:56.945Z,9.70
2019-06-07T03:02:55.919Z,9.00
2019-06-07T03:03:56.338Z,8.90
2019-06-07T03:04:55.895Z,8.80
2019-06-07T03:05:55.905Z,9.80
2019-06-07T03:06:56.309Z,9.70
2019-06-07T03:07:55.855Z,10.20
2019-06-07T03:08:55.865Z,10.20
2019-06-07T03:09:55.875Z,9.10
2019-06-07T03:10:55.827Z,9.60
2019-06-07T03:11:55.827Z,10.10
2019-06-07T03:12:55.808Z,9.40
2019-06-07T03:13:55.832Z,9.40
2019-06-07T03:14:55.783Z,9.30
2019-06-07T03:15:55.777Z,9.50
2019-06-07T03:16:55.763Z,10.20
2019-06-07T03:17:55.754Z,9.40
2019-06-07T03:18:55.757Z,9.50
2019-06-07T03:19:55.773Z,9.50
2019-06-07T03:21:04.970Z,9.30
2019-06-07T03:21:56.714Z,9.70
2019-06-07T03:22:55.703Z,9.60
2019-06-07T03:23:55.694Z,9.30
2019-06-07T03:24:55.708Z,10.20
2019-06-07T03:25:55.680Z,9.80
2019-06-07T03:27:34.100Z,9.70
2019-06-07T03:27:56.643Z,9.40
2019-06-07T03:28:55.650Z,9.80
2019-06-07T03:29:55.649Z,9.20
2019-06-07T03:31:02.067Z,9.80
2019-06-07T03:31:56.602Z,9.60
2019-06-07T03:32:55.592Z,9.80
2019-06-07T03:33:55.609Z,9.20
2019-06-07T03:34:55.612Z,9.80
2019-06-07T03:35:55.554Z,9.70
2019-06-07T03:36:55.554Z,9.60
2019-06-07T03:37:55.542Z,10.10
2019-06-07T03:38:55.581Z,9.80
2019-06-07T03:39:55.540Z,9.40
2019-06-07T03:40:55.523Z,8.60
2019-06-07T03:42:05.865Z,9.40
2019-06-07T03:42:56.523Z,9.70
2019-06-07T03:43:55.468Z,9.70
2019-06-07T03:44:55.463Z,9.20
2019-06-07T03:45:55.485Z,8.90
2019-06-07T03:46:55.435Z,9.80
2019-06-07T03:47:55.425Z,9.80
2019-06-07T03:48:55.422Z,10.40
2019-06-07T03:49:55.434Z,9.50
2019-06-07T03:51:04.102Z,9.70
2019-06-07T03:51:56.385Z,9.30
2019-06-07T03:52:55.374Z,8.50
2019-06-07T03:53:55.364Z,9.00
2019-06-07T03:54:55.402Z,8.90
2019-06-07T03:55:55.366Z,9.40
2019-06-07T03:56:55.335Z,9.10
2019-06-07T03:58:56.318Z,8.90
2019-06-07T03:59:55.295Z,8.90
2019-06-07T04:00:55.305Z,8.50
2019-06-07T04:01:55.276Z,8.80
2019-06-07T04:02:55.265Z,8.90
2019-06-07T04:03:55.255Z,8.90
2019-06-07T04:04:55.274Z,8.20
2019-06-07T04:05:55.260Z,8.50
2019-06-07T04:06:55.252Z,8.80
2019-06-07T04:07:55.218Z,8.40
2019-06-07T04:08:55.209Z,8.70
2019-06-07T04:09:55.183Z,9.20
2019-06-07T04:11:00.307Z,8.90
2019-06-07T04:11:56.165Z,8.40
2019-06-07T04:12:55.155Z,8.50
2019-06-07T04:13:55.139Z,9.00
2019-06-07T04:14:55.135Z,8.80
2019-06-07T04:15:55.130Z,9.40
2019-06-07T04:16:55.138Z,7.70
2019-06-07T04:18:01.937Z,8.30
2019-06-07T04:18:56.085Z,8.90
2019-06-07T04:19:55.079Z,8.60
2019-06-07T04:20:55.097Z,8.20
2019-06-07T04:21:55.077Z,8.20
2019-06-07T04:22:55.037Z,8.40
2019-06-07T04:23:55.036Z,9.00
2019-06-07T04:24:55.034Z,8.50
2019-06-07T04:25:55.035Z,8.50
2019-06-07T04:26:55.056Z,8.90
2019-06-07T04:27:54.990Z,8.40
2019-06-07T04:29:31.553Z,8.30
2019-06-07T04:30:07.578Z,8.40
2019-06-07T04:30:55.959Z,8.70
2019-06-07T04:31:54.976Z,8.60
2019-06-07T04:32:54.997Z,8.20
2019-06-07T04:33:54.929Z,8.70
2019-06-07T04:34:55.588Z,8.40
2019-06-07T04:35:54.916Z,8.40
2019-06-07T04:36:58.968Z,8.10
2019-06-07T04:37:54.896Z,7.90
2019-06-07T04:38:54.874Z,7.60
2019-06-07T04:39:54.877Z,8.70
2019-06-07T04:40:54.851Z,8.30
2019-06-07T04:41:54.886Z,7.60
2019-06-07T04:42:54.860Z,8.10
2019-06-07T04:43:54.826Z,8.10
2019-06-07T04:44:54.817Z,8.00
2019-06-07T04:45:54.806Z,8.00
2019-06-07T04:46:54.839Z,7.90
2019-06-07T04:47:54.848Z,8.30
2019-06-07T04:48:54.766Z,8.30
2019-06-07T04:49:54.772Z,8.80
2019-06-07T04:50:54.746Z,8.40
2019-06-07T04:51:54.759Z,8.10
2019-06-07T04:52:54.719Z,8.20
2019-06-07T04:53:54.724Z,7.60
2019-06-07T04:54:54.707Z,7.90
2019-06-07T04:55:54.696Z,7.80
2019-06-07T04:56:54.727Z,7.80
2019-06-07T04:57:54.680Z,8.10
2019-06-07T04:58:54.671Z,8.10
2019-06-07T05:00:12.272Z,7.80
2019-06-07T05:01:02.620Z,8.00
2019-06-07T05:01:55.659Z,7.40
2019-06-07T05:02:54.622Z,7.70
2019-06-07T05:03:54.629Z,8.50
2019-06-07T05:04:54.597Z,7.70
2019-06-07T05:05:54.587Z,7.90
2019-06-07T05:06:54.614Z,7.50
2019-06-07T05:07:54.572Z,7.60
2019-06-07T05:08:54.568Z,7.60
2019-06-07T05:09:54.582Z,7.30
2019-06-07T05:10:54.537Z,8.10
2019-06-07T05:11:54.519Z,7.70
2019-06-07T05:12:54.566Z,7.20
2019-06-07T05:13:54.499Z,7.50
2019-06-07T05:14:54.483Z,7.60
2019-06-07T05:15:54.477Z,8.00
2019-06-07T05:16:54.509Z,7.80
2019-06-07T05:17:54.488Z,7.80
2019-06-07T05:18:54.439Z,7.20
2019-06-07T05:19:54.461Z,7.90
2019-06-07T05:20:54.443Z,7.40
2019-06-07T05:22:04.164Z,7.80
2019-06-07T05:22:55.419Z,7.50
2019-06-07T05:24:09.489Z,7.60
2019-06-07T05:24:55.380Z,8.10
2019-06-07T05:25:54.367Z,7.50
2019-06-07T05:26:54.368Z,7.70
2019-06-07T05:27:54.371Z,7.40
2019-06-07T05:28:54.340Z,7.70
2019-06-07T05:30:13.227Z,7.80
2019-06-07T05:31:04.752Z,7.10
2019-06-07T05:31:55.299Z,7.80
2019-06-07T05:32:54.349Z,7.40
2019-06-07T05:33:54.290Z,7.50
2019-06-07T05:34:54.289Z,7.30
2019-06-07T05:35:54.288Z,7.30
2019-06-07T05:37:10.996Z,7.20
2019-06-07T05:37:55.280Z,7.20
2019-06-07T05:38:54.237Z,7.60
2019-06-07T05:39:54.217Z,7.00
2019-06-07T05:40:54.236Z,8.00
2019-06-07T05:41:54.237Z,7.30
2019-06-07T05:42:54.193Z,7.10
2019-06-07T05:44:11.661Z,7.40
2019-06-07T05:44:55.421Z,7.90
2019-06-07T05:45:54.166Z,7.70
2019-06-07T05:46:54.154Z,7.10
2019-06-07T05:47:54.174Z,7.40
2019-06-07T05:48:54.157Z,7.60
2019-06-07T05:49:54.140Z,7.90
2019-06-07T05:50:57.758Z,7.70
2019-06-07T05:51:54.085Z,8.30
2019-06-07T05:52:54.090Z,8.30
2019-06-07T05:53:54.095Z,8.20
2019-06-07T05:54:54.080Z,7.90
2019-06-07T05:55:54.078Z,8.20
2019-06-07T05:56:54.051Z,7.40
2019-06-07T05:57:54.022Z,8.00
2019-06-07T05:58:54.048Z,7.90
2019-06-07T05:59:54.054Z,7.30
2019-06-07T06:00:54.010Z,7.60
2019-06-07T06:02:02.840Z,7.80
2019-06-07T06:03:04.999Z,7.90
2019-06-07T06:03:54.982Z,7.50
2019-06-07T06:04:53.953Z,8.10
2019-06-07T06:05:55.557Z,8.20
2019-06-07T06:06:53.962Z,8.30
2019-06-07T06:07:53.922Z,8.40
2019-06-07T06:09:11.557Z,8.10
2019-06-07T06:09:54.910Z,8.30
2019-06-07T06:10:54.157Z,8.50
2019-06-07T06:12:01.863Z,8.70
2019-06-07T06:12:54.868Z,8.50
2019-06-07T06:14:06.826Z,8.90
2019-06-07T06:14:54.841Z,9.20
2019-06-07T06:16:01.370Z,8.50
2019-06-07T06:16:54.833Z,9.30
2019-06-07T06:17:54.232Z,8.70
2019-06-07T06:18:53.809Z,9.10
2019-06-07T06:19:53.836Z,9.00
2019-06-07T06:21:15.540Z,9.40
2019-06-07T06:21:54.776Z,9.20
2019-06-07T06:22:53.766Z,9.80
2019-06-07T06:23:54.019Z,9.90
2019-06-07T06:25:29.696Z,9.80
2019-06-07T06:25:57.675Z,10.40
2019-06-07T06:27:00.211Z,10.10
2019-06-07T06:28:09.856Z,10.20
2019-06-07T06:28:54.718Z,10.40
2019-06-07T06:29:53.705Z,10.60
2019-06-07T06:30:53.685Z,10.00
2019-06-07T06:32:39.477Z,11.30
2019-06-07T06:32:58.114Z,10.50
2019-06-07T06:33:53.664Z,10.90
2019-06-07T06:34:55.751Z,10.50
2019-06-07T06:35:53.636Z,10.00
2019-06-07T06:36:53.606Z,10.90
2019-06-07T06:37:53.638Z,11.00
2019-06-07T06:38:53.734Z,10.20
2019-06-07T06:39:53.609Z,10.30
2019-06-07T06:41:13.984Z,10.90
2019-06-07T06:42:03.285Z,10.80
2019-06-07T06:42:54.546Z,11.40
2019-06-07T06:43:53.539Z,11.00
2019-06-07T06:44:54.187Z,11.00
2019-06-07T06:45:53.542Z,10.60
2019-06-07T06:46:58.283Z,11.50
2019-06-07T06:47:54.522Z,10.30
2019-06-07T06:48:55.308Z,10.70
2019-06-07T06:49:54.447Z,10.90
2019-06-07T06:50:53.476Z,10.60
2019-06-07T06:51:53.976Z,11.10
2019-06-07T06:52:54.718Z,10.90
2019-06-07T06:53:53.438Z,11.20
2019-06-07T06:55:00.033Z,10.80
2019-06-07T06:55:54.463Z,10.40
2019-06-07T06:56:53.399Z,10.00
2019-06-07T06:57:53.397Z,10.20
2019-06-07T06:59:33.988Z,10.00
2019-06-07T06:59:54.378Z,9.80
2019-06-07T07:01:05.367Z,10.00
2019-06-07T07:01:54.340Z,9.80
2019-06-07T07:03:39.265Z,9.20
2019-06-07T07:04:11.059Z,8.90
2019-06-07T07:04:54.368Z,9.50
2019-06-07T07:05:54.903Z,9.60
2019-06-07T07:06:53.874Z,9.60
2019-06-07T07:07:53.294Z,9.60
2019-06-07T07:08:53.573Z,9.40
2019-06-07T07:09:58.756Z,9.70
2019-06-07T07:10:54.989Z,9.40
2019-06-07T07:12:10.406Z,9.50
2019-06-07T07:12:54.240Z,8.60
2019-06-07T07:13:56.496Z,9.40
2019-06-07T07:14:56.043Z,8.90
2019-06-07T07:15:57.918Z,9.10
2019-06-07T07:16:56.663Z,9.10
2019-06-07T07:18:03.864Z,8.70
2019-06-07T07:18:54.863Z,9.60
2019-06-07T07:19:55.644Z,9.30
2019-06-07T07:20:56.881Z,9.10
2019-06-07T07:21:55.227Z,9.50
2019-06-07T07:22:56.819Z,8.30
2019-06-07T07:24:19.672Z,8.00
2019-06-07T07:24:54.958Z,8.70
2019-06-07T07:25:58.604Z,8.80
2019-06-07T07:26:58.303Z,9.10
2019-06-07T07:27:55.270Z,8.70
2019-06-07T07:28:57.150Z,8.90
2019-06-07T07:30:22.762Z,9.00
2019-06-07T07:30:56.926Z,9.70
2019-06-07T07:31:55.843Z,9.10
2019-06-07T07:32:54.167Z,9.10
2019-06-07T07:34:59.984Z,9.30
2019-06-07T07:36:18.578Z,9.50
2019-06-07T07:36:59.226Z,9.70
2019-06-07T07:37:59.461Z,9.00
2019-06-07T07:39:00.429Z,9.40
2019-06-07T07:40:01.086Z,9.60
2019-06-07T07:41:08.968Z,10.00
2019-06-07T07:42:13.752Z,9.70
2019-06-07T07:42:56.291Z,9.20
2019-06-07T07:44:01.650Z,9.20
2019-06-07T07:44:56.490Z,8.50
2019-06-07T07:45:59.307Z,8.40
2019-06-07T07:46:55.929Z,7.70
2019-06-07T07:48:08.660Z,7.80
2019-06-07T07:48:54.700Z,7.40
2019-06-07T07:49:56.400Z,7.30
2019-06-07T07:51:00.050Z,7.90
2019-06-07T07:51:58.323Z,7.10
2019-06-07T07:53:00.049Z,8.40
2019-06-07T07:54:09.062Z,7.90
2019-06-07T07:54:56.615Z,8.40
2019-06-07T07:55:58.459Z,8.20
2019-06-07T07:56:56.085Z,7.70
2019-06-07T07:58:00.943Z,7.40
2019-06-07T07:58:56.159Z,7.20
2019-06-07T08:00:05.958Z,6.80
2019-06-07T08:01:07.164Z,7.40
2019-06-07T08:01:56.008Z,7.10
2019-06-07T08:02:53.749Z,7.60
2019-06-07T08:03:54.892Z,6.80
2019-06-07T08:05:20.573Z,6.80
2019-06-07T08:05:58.395Z,6.80
2019-06-07T08:06:56.005Z,7.20
2019-06-07T08:07:56.482Z,7.50
2019-06-07T08:08:55.874Z,7.50
2019-06-07T08:09:59.575Z,6.70
2019-06-07T08:10:58.151Z,7.10
2019-06-07T08:12:00.069Z,7.10
2019-06-07T08:13:18.171Z,7.50
2019-06-07T08:13:57.013Z,6.60
2019-06-07T08:14:57.493Z,6.90
2019-06-07T08:15:58.784Z,7.70
2019-06-07T08:16:54.478Z,7.00
2019-06-07T08:17:58.036Z,7.90
2019-06-07T08:18:57.466Z,7.70
2019-06-07T08:19:55.028Z,6.90
2019-06-07T08:21:08.693Z,6.40
2019-06-07T08:21:55.523Z,6.60
2019-06-07T08:22:52.681Z,6.30
2019-06-07T08:23:58.282Z,6.70
2019-06-07T08:24:55.308Z,6.30
2019-06-07T08:25:56.393Z,6.80
2019-06-07T08:27:17.898Z,5.90
2019-06-07T08:27:56.814Z,6.60
2019-06-07T08:28:55.880Z,5.70
2019-06-07T08:30:08.991Z,6.70
2019-06-07T08:31:02.293Z,7.50
2019-06-07T08:31:55.901Z,6.10
2019-06-07T08:32:57.720Z,5.60
2019-06-07T08:33:57.999Z,7.00
2019-06-07T08:34:56.832Z,6.00
2019-06-07T08:36:54.935Z,5.80
2019-06-07T08:38:22.147Z,7.30
2019-06-07T08:38:57.859Z,4.70
2019-06-07T08:39:57.559Z,6.20
2019-06-07T08:40:59.089Z,7.20
2019-06-07T08:42:01.498Z,7.00
2019-06-07T08:43:10.734Z,6.90
2019-06-07T08:43:55.332Z,6.60
2019-06-07T08:44:55.944Z,6.70
2019-06-07T08:45:58.511Z,6.00
2019-06-07T08:47:11.604Z,6.50
2019-06-07T08:47:59.378Z,6.10
2019-06-07T08:48:54.042Z,5.90
2019-06-07T08:49:55.989Z,5.50
2019-06-07T08:50:55.330Z,5.80
2019-06-07T08:52:02.608Z,7.80
2019-06-07T08:52:56.987Z,6.10
2019-06-07T08:54:09.274Z,5.00
2019-06-07T08:54:54.874Z,13.40
2019-06-07T08:55:58.257Z,19.90
2019-06-07T08:56:57.396Z,5.70
2019-06-07T08:57:57.258Z,5.90
2019-06-07T08:58:55.005Z,5.00
2019-06-07T08:59:55.703Z,3.80
2019-06-07T09:00:55.174Z,4.20
2019-06-07T09:01:54.527Z,5.30
2019-06-07T09:02:54.962Z,4.80
2019-06-07T09:03:55.006Z,5.00
2019-06-07T09:04:56.429Z,4.60
2019-06-07T09:05:54.192Z,4.00
2019-06-07T09:07:06.733Z,4.50
2019-06-07T09:08:13.354Z,4.80
2019-06-07T09:08:53.818Z,4.60
2019-06-07T09:09:58.507Z,4.30
2019-06-07T09:10:54.049Z,4.00
2019-06-07T09:11:52.431Z,4.30
2019-06-07T09:12:54.402Z,4.30
2019-06-07T09:13:54.460Z,4.50
2019-06-07T09:15:09.330Z,4.10
2019-06-07T09:15:53.695Z,4.40
2019-06-07T09:16:51.918Z,4.10
2019-06-07T09:18:57.032Z,3.70
2019-06-07T09:19:55.496Z,4.20
2019-06-07T09:20:51.840Z,4.10
2019-06-07T09:21:51.832Z,3.80
2019-06-07T09:22:51.834Z,3.90
2019-06-07T09:23:51.832Z,4.00
2019-06-07T09:24:51.815Z,4.30
2019-06-07T09:26:00.997Z,3.80
2019-06-07T09:26:52.770Z,4.00
2019-06-07T09:27:51.858Z,3.80
2019-06-07T09:28:51.775Z,3.40
2019-06-07T09:29:51.779Z,3.40
2019-06-07T09:30:51.738Z,3.60
2019-06-07T09:31:53.721Z,4.30
2019-06-07T09:32:51.691Z,3.90
2019-06-07T09:33:51.698Z,3.50
2019-06-07T09:34:51.699Z,4.10
2019-06-07T09:35:51.671Z,3.80
2019-06-07T09:36:51.642Z,3.20
2019-06-07T09:38:07.685Z,3.40
2019-06-07T09:38:52.633Z,3.30
2019-06-07T09:39:51.657Z,3.50
2019-06-07T09:40:51.607Z,3.10
2019-06-07T09:41:51.607Z,3.10
2019-06-07T09:43:38.340Z,3.10
2019-06-07T09:44:05.477Z,3.60
2019-06-07T09:44:52.590Z,3.20
2019-06-07T09:45:51.565Z,3.20
2019-06-07T09:47:12.493Z,3.60
2019-06-07T09:47:52.555Z,3.60
2019-06-07T09:49:52.515Z,3.30
2019-06-07T09:50:51.536Z,3.60
2019-06-07T09:51:51.516Z,3.00
2019-06-07T09:52:58.688Z,2.90
2019-06-07T09:53:52.481Z,2.80
2019-06-07T09:55:21.709Z,17.50
2019-06-07T09:55:52.507Z,2.70
2019-06-07T09:56:51.427Z,2.70
2019-06-07T09:57:51.441Z,3.00
2019-06-07T09:58:53.606Z,3.00
2019-06-07T09:59:51.407Z,2.50
2019-06-07T10:00:51.428Z,2.90
2019-06-07T10:01:51.382Z,2.80
2019-06-07T10:02:51.389Z,2.70
2019-06-07T10:03:51.383Z,3.00
2019-06-07T10:04:51.358Z,3.10
2019-06-07T10:05:51.383Z,2.60
2019-06-07T10:06:51.328Z,2.90
2019-06-07T10:08:02.657Z,2.70
2019-06-07T10:10:52.335Z,2.90
2019-06-07T10:11:51.292Z,2.90
2019-06-07T10:12:51.250Z,3.00
2019-06-07T10:13:51.251Z,2.80
2019-06-07T10:14:51.252Z,2.80
2019-06-07T10:15:53.626Z,2.70
2019-06-07T10:16:51.226Z,2.80
2019-06-07T10:17:51.234Z,2.70
2019-06-07T10:18:51.186Z,3.10
2019-06-07T10:19:51.190Z,2.70
2019-06-07T10:20:51.222Z,3.20
2019-06-07T10:21:51.172Z,2.90
2019-06-07T10:22:51.172Z,2.70
2019-06-07T10:23:51.160Z,2.90
2019-06-07T10:24:51.146Z,3.00
2019-06-07T10:25:51.156Z,3.10
2019-06-07T10:26:51.148Z,3.00
2019-06-07T10:27:51.111Z,2.70
2019-06-07T10:28:53.388Z,2.80
2019-06-07T10:29:51.089Z,3.40
2019-06-07T10:30:51.099Z,2.90
2019-06-07T10:31:51.094Z,2.70
2019-06-07T10:32:52.319Z,3.10
2019-06-07T10:33:51.048Z,3.00
2019-06-07T10:34:51.040Z,2.90
2019-06-07T10:35:51.047Z,2.50
2019-06-07T10:36:51.103Z,2.90
2019-06-07T10:37:51.006Z,3.10
2019-06-07T10:38:51.078Z,2.70
2019-06-07T10:39:50.975Z,2.70
2019-06-07T10:40:51.009Z,2.80
2019-06-07T10:41:53.971Z,2.90
2019-06-07T10:42:50.936Z,2.80
2019-06-07T10:43:50.946Z,2.80
2019-06-07T10:44:50.981Z,2.80
2019-06-07T10:45:50.913Z,3.00
2019-06-07T10:46:50.951Z,3.00
2019-06-07T10:47:50.901Z,2.90
2019-06-07T10:48:50.868Z,3.10
2019-06-07T10:49:50.882Z,3.20
2019-06-07T10:50:50.860Z,2.90
2019-06-07T10:51:50.874Z,3.20
2019-06-07T10:52:50.845Z,2.60
2019-06-07T10:53:50.829Z,2.80
2019-06-07T10:54:50.844Z,3.20
2019-06-07T10:55:50.845Z,2.90
2019-06-07T10:56:50.825Z,3.20
2019-06-07T10:57:50.790Z,3.00
2019-06-07T10:58:51.732Z,2.90
2019-06-07T10:59:50.751Z,2.70
2019-06-07T11:00:51.116Z,2.70
2019-06-07T11:01:50.766Z,3.10
2019-06-07T11:02:50.723Z,3.00
2019-06-07T11:03:50.752Z,2.70
2019-06-07T11:04:50.715Z,3.00
2019-06-07T11:05:50.721Z,3.30
2019-06-07T11:06:50.728Z,2.60
2019-06-07T11:07:50.758Z,2.80
2019-06-07T11:08:50.669Z,2.80
2019-06-07T11:10:05.693Z,2.70
2019-06-07T11:10:51.653Z,2.30
2019-06-07T11:11:50.633Z,2.60
2019-06-07T11:12:50.680Z,2.70
2019-06-07T11:13:52.554Z,2.90
2019-06-07T11:14:50.594Z,2.80
2019-06-07T11:15:50.670Z,2.70
2019-06-07T11:16:50.605Z,2.90
2019-06-07T11:17:50.605Z,3.10
2019-06-07T11:18:50.559Z,2.70
2019-06-07T11:19:50.554Z,3.20
2019-06-07T11:20:50.593Z,2.80
2019-06-07T11:21:50.576Z,2.90
2019-06-07T11:22:50.539Z,2.80
2019-06-07T11:23:50.505Z,2.70
2019-06-07T11:24:50.497Z,3.00
2019-06-07T11:25:50.480Z,2.70
2019-06-07T11:26:50.500Z,2.60
2019-06-07T11:27:50.497Z,3.00
2019-06-07T11:28:50.472Z,2.60
2019-06-07T11:29:50.451Z,2.40
2019-06-07T11:30:50.431Z,2.70
2019-06-07T11:31:50.463Z,2.70
2019-06-07T11:32:50.442Z,3.20
2019-06-07T11:33:50.423Z,2.70
2019-06-07T11:34:50.392Z,2.70
2019-06-07T11:35:50.406Z,2.70
2019-06-07T11:36:51.139Z,2.50
2019-06-07T11:37:50.410Z,2.60
2019-06-07T11:38:50.336Z,2.10
2019-06-07T11:39:50.341Z,2.70
2019-06-07T11:40:50.349Z,3.00
2019-06-07T11:41:50.335Z,2.90
2019-06-07T11:42:52.750Z,2.70
2019-06-07T11:43:50.305Z,2.60
2019-06-07T11:44:56.813Z,2.80
2019-06-07T11:45:51.279Z,2.50
2019-06-07T11:46:50.270Z,2.60
2019-06-07T11:47:50.301Z,2.70
2019-06-07T11:48:50.275Z,2.60
2019-06-07T11:49:50.223Z,2.60
2019-06-07T11:50:50.210Z,2.50
2019-06-07T11:51:50.220Z,2.50
2019-06-07T11:52:50.199Z,2.60
2019-06-07T11:53:50.206Z,2.60
2019-06-07T11:54:50.204Z,2.40
2019-06-07T11:55:50.164Z,2.50
2019-06-07T11:56:50.162Z,2.50
2019-06-07T11:57:50.422Z,2.40
2019-06-07T11:58:50.173Z,2.40
2019-06-07T11:59:50.129Z,2.10
2019-06-07T12:00:50.127Z,2.40
2019-06-07T12:01:50.098Z,2.30
2019-06-07T12:02:50.101Z,2.60
2019-06-07T12:03:50.127Z,2.40
2019-06-07T12:04:50.075Z,2.80
2019-06-07T12:05:50.046Z,2.30
2019-06-07T12:06:50.083Z,2.50
2019-06-07T12:07:50.040Z,2.50
2019-06-07T12:08:50.049Z,2.30
2019-06-07T12:09:56.398Z,2.50
2019-06-07T12:10:51.016Z,2.30
2019-06-07T12:11:50.024Z,2.30
2019-06-07T12:12:50.000Z,2.30
2019-06-07T12:13:50.017Z,2.30
2019-06-07T12:14:49.966Z,2.20
2019-06-07T12:15:49.959Z,2.50
2019-06-07T12:16:49.930Z,2.00
2019-06-07T12:17:49.950Z,2.40
2019-06-07T12:18:49.970Z,2.20
2019-06-07T12:19:49.932Z,2.50
2019-06-07T12:20:49.912Z,2.80
2019-06-07T12:21:49.889Z,2.60
2019-06-07T12:22:49.882Z,2.20
2019-06-07T12:23:49.877Z,2.70
2019-06-07T12:24:49.920Z,2.40
2019-06-07T12:25:49.853Z,2.40
2019-06-07T12:26:49.857Z,2.30
2019-06-07T12:27:49.952Z,2.40
2019-06-07T12:28:49.850Z,2.50
2019-06-07T12:29:49.837Z,2.60
2019-06-07T12:30:49.804Z,2.70
2019-06-07T12:31:49.813Z,2.40
2019-06-07T12:32:49.782Z,2.60
2019-06-07T12:33:49.792Z,2.20
2019-06-07T12:34:49.785Z,2.40
2019-06-07T12:35:49.820Z,2.20
2019-06-07T12:36:49.746Z,2.40
2019-06-07T12:37:49.732Z,1.90
2019-06-07T12:38:49.720Z,2.10
2019-06-07T12:39:49.729Z,2.20
2019-06-07T12:40:57.724Z,2.00
2019-06-07T12:41:50.683Z,2.10
2019-06-07T12:42:49.677Z,2.00
2019-06-07T12:43:49.686Z,2.00
2019-06-07T12:44:49.707Z,1.90
2019-06-07T12:45:49.665Z,2.00
2019-06-07T12:46:49.664Z,2.00
2019-06-07T12:47:49.640Z,2.40
2019-06-07T12:48:49.629Z,2.10
2019-06-07T12:49:49.599Z,2.20
2019-06-07T12:50:49.618Z,2.00
2019-06-07T12:51:49.569Z,2.30
2019-06-07T12:52:49.580Z,2.10
2019-06-07T12:53:49.589Z,2.00
2019-06-07T12:54:49.584Z,2.20
2019-06-07T12:55:49.577Z,2.10
2019-06-07T12:56:52.280Z,2.30
2019-06-07T12:57:49.531Z,2.00
2019-06-07T12:58:49.516Z,2.30
2019-06-07T12:59:49.508Z,1.90
2019-06-07T13:00:49.523Z,2.10
2019-06-07T13:01:49.523Z,2.30
2019-06-07T13:02:49.499Z,1.90
2019-06-07T13:03:49.450Z,1.80
2019-06-07T13:04:49.439Z,2.20
2019-06-07T13:05:49.457Z,2.00
2019-06-07T13:06:49.456Z,2.10
2019-06-07T13:07:49.412Z,1.90
2019-06-07T13:08:49.439Z,2.00
2019-06-07T13:09:49.385Z,2.30
2019-06-07T13:10:49.416Z,2.30
2019-06-07T13:11:49.364Z,2.00
2019-06-07T13:12:49.355Z,2.10
2019-06-07T13:13:49.360Z,2.60
2019-06-07T13:14:49.358Z,2.80
2019-06-07T13:15:49.380Z,2.20
2019-06-07T13:16:49.310Z,2.10
2019-06-07T13:17:49.310Z,2.20
2019-06-07T13:18:49.305Z,2.20
2019-06-07T13:19:49.286Z,2.80
2019-06-07T13:20:49.331Z,2.00
2019-06-07T13:21:49.264Z,2.40
2019-06-07T13:22:49.259Z,2.40
2019-06-07T13:23:49.266Z,2.90